GCRRGEML

Guest
Details From GCRR - Lanzarote
To GEML - MELILLA
Flight Number -
Tags generated
Created
Modified
Stats Distance 676 nm / 1,253 km
Max Altitude 35,000 ft / 10,668 m
Waypoints 8
Social Downloads 0
Likes 0
Share VATSIM

Download

Looking for another format? Having issues loading an existing format? Contact us
Advertisement - Login to hide

Notes

Basic altitude profile: - Ascent Rate: 2500ft/min - Ascent Speed: 250kts - Cruise Altitude: 35000ft - Cruise Speed: 420kts - Descent Rate: 1500ft/min - Descent Speed: 250kts Options: - Use NATs: yes - Use PACOTS: yes - Use low airways: yes - Use high airways: yes

Route

GCRR SONSO UG5 ESS B11 MAK UG850 FES UA411 SOVAL GEML

ID Type Via Altitude Latitude Longitude Leg Dist Tot Dist Heading (true) Name
O GCRR APT - 0 ft / 0 m 28.94547˚ -13.60522˚ - 0 nm - Lanzarote
SONSO FIX - 35,000 ft / 10,668 m 30.01222˚ -12.10194˚ 101 nm 101 nm 50° / 51° -
ESS VOR UG5 (AWY-HI) 35,000 ft / 10,668 m 31.40124˚ -9.68696˚ 150 nm 251 nm 56° / 57° ESSAOUIRA VOR-DME
MAK VOR B11 (AWY-LO) 23,500 ft / 7,163 m 31.61278˚ -8.10306˚ 82 nm 333 nm 81° / 82° MARRAKECH VOR-DME
ERLAM FIX UG850 (AWY-HI) 35,000 ft / 10,668 m 32.91917˚ -6.39000˚ 117 nm 450 nm 47° / 48° -
FES VOR UG850 (AWY-HI) 27,700 ft / 8,443 m 33.92750˚ -5.01361˚ 91 nm 542 nm 48° / 49° SAISS VOR-DME
SOVAL FIX UA411 (AWY-HI) 23,500 ft / 7,163 m 34.17278˚ -4.16889˚ 44 nm 586 nm 70° / 71° -
O GEML APT - 0 ft / 0 m 35.28037˚ -2.95671˚ 89 nm 676 nm 42° / 42° MELILLA

Altitude Profile

Advertisement - Login to hide

Weather


0- 5 10 15 20 25 30 35+ Temperature / ° C

Clouds and Precipitation
Forecast for 2017-12-13 12:00 UTC. Updated an hour ago

Ground ~20,000 ft ~40,000 ft Winds

GCRR

Details ICAO GCRR (ACE)
Name Lanzarote
Region Canary Islands
Timezone Atlantic/Canary (UTC+0.0)
Stats Elevation 0 ft / 0 m (AMSL)
Location 28.945466° -13.605223°
Runways 1
Magnetic Variation 3.977° W

METAR

GCRR 131230Z 03024G36KT 9999 SCT040 20/10 Q1023

Decode

TAF

TAF GCRR 130800Z 1309/1409 02020KT 9999 FEW040 TX21/1315Z TN15/1406Z TEMPO 1309/1316 02025G35KT BECMG 1402/1404 02010KT

Decode

Departure Runways

ID Width Length Bearing (true) Bearing (mag) Surface Threshold Offset Overrun Length
03 148 ft / 45 m 7,893 ft / 2,406 m 26.90° 30.88° Asphalt 197 ft / 60 m 197 ft / 60 m
21 148 ft / 45 m 7,893 ft / 2,406 m 206.91° 210.89° Asphalt 197 ft / 60 m 197 ft / 60 m

GEML

Details ICAO GEML (MLN)
Name MELILLA
Region Ceuta and Melilla
Timezone Africa/Casablanca (UTC+0.0)
Stats Elevation 156 ft / 48 m (AMSL)
Location 35.280374° -2.956708°
Runways 1
Magnetic Variation 0.454° W

METAR

GEML 131230Z 06002KT 9999 FEW028 16/09 Q1028

Decode

TAF

TAF GEML 130800Z 1309/1409 09006KT CAVOK TX16/1313Z TN06/1405Z

Decode

Destination Runways

ID Width Length Bearing (true) Bearing (mag) Surface Threshold Offset Overrun Length
15 148 ft / 45 m 4,811 ft / 1,466 m 146.39° 146.84° Asphalt 755 ft / 230 m 0 ft / 0 m
33 148 ft / 45 m 4,811 ft / 1,466 m 326.40° 326.85° Asphalt 0 ft / 0 m 0 ft / 0 m